news4press.com alexa rank chart, news4press.com alexa rank daily changes

news4press.com alexa rank chart, news4press.com alexa rank daily changes

news4press.com
Actual rank:
637 997

RANK HISTORY

Date Rank Diff
2018/01/19 637 997 -22 022
2018/01/18 660 019 -30 430
2018/01/17 690 449 +1 469
2018/01/16 688 980 -2 320
2018/01/15 691 300 -39 799
2018/01/14 731 099 -23 733
2018/01/13 754 832 -102 426
2018/01/12 857 258 +3 201
2018/01/11 854 057 +4 096
2018/01/10 849 961 -42 339
2018/01/09 892 300 +35 155
2018/01/08 857 145 -18 843
2018/01/07 875 988 +73 807
2018/01/06 802 181 -12 223
2018/01/05 814 404 -64 509
2018/01/04 878 913 +41 561
2018/01/03 837 352 -5 496
2018/01/02 842 848 +37 965
2018/01/01 804 883 +17 203
2017/12/31 787 680 +34 753
2017/12/30 752 927 -3 264
2017/12/29 756 191 +28 995
2017/12/28 727 196 -169
2017/12/27 727 365 -2 211
2017/12/26 729 576 -4 850
2017/12/25 734 426 -4 145
2017/12/24 738 571 -53 722
2017/12/23 792 293 -4 919
2017/12/22 797 212 -7 088
2017/12/21 804 300 -160 536
2017/12/20 964 836 +537
2017/12/13 964 299 +3 317
2017/12/12 960 982 -3 662
2017/12/11 964 644 -5 386
2017/12/10 970 030 +37 258
2017/12/09 932 772 -38 326
2017/12/08 971 098 -11 875
2017/12/07 982 973 +22 998
2017/12/03 959 975 +70 352
2017/12/02 889 623 -11 218
2017/12/01 900 841 -35 852
2017/11/30 936 693 +5 623
2017/11/29 931 070 -2 721
2017/11/28 933 791 +59 495
2017/11/27 874 296 +25 996
2017/11/26 848 300 -1 231
2017/11/25 849 531 +13 428
2017/11/24 836 103 +2 540
2017/11/23 833 563 +25 441
2017/11/22 808 122 -44 829
2017/11/21 852 951 +64 914
2017/11/20 788 037

WIDGET FOR YOUR SITE

DOMAINS WITH THE NEAREST RANK

Domain Rank
samstorms.com 637 992
kabel-s.ru 637 993
knifezone.ca 637 994
ducvietco.com 637 995
docke.ru 637 996
news4press.com 637 997
xhdjx.com 637 998
consultgeophysics.com 637 999
game-onlaine.ru 638 000
pol-ka.com 638 001
nejlepsipecko.cz 638 002

DOMAINS WITH THE NEAREST RANK BY TLD .com

Domain Rank
streetswing.com 637 988
kinetick.com 637 990
noppies.com 637 991
samstorms.com 637 992
ducvietco.com 637 995
news4press.com 637 997
xhdjx.com 637 998
consultgeophysics.com 637 999
pol-ka.com 638 001
megapip.com 638 004
modulkomputer.com 638 006